sensor_id;sensor_type;location;lat;lon;timestamp;P1;durP1;ratioP1;P2;durP2;ratioP2
78406;SDS011;67692;51.074;-1.790;2023-10-09T00:01:01;12.38;;;7.47;;
78406;SDS011;67692;51.074;-1.790;2023-10-09T00:03:30;14.20;;;8.55;;
78406;SDS011;67692;51.074;-1.790;2023-10-09T00:05:58;15.85;;;8.90;;
78406;SDS011;67692;51.074;-1.790;2023-10-09T00:08:27;15.50;;;9.30;;
78406;SDS011;67692;51.074;-1.790;2023-10-09T00:10:57;17.15;;;9.90;;
78406;SDS011;67692;51.074;-1.790;2023-10-09T00:13:38;16.23;;;8.43;;
78406;SDS011;67692;51.074;-1.790;2023-10-09T00:16:14;13.60;;;8.23;;
78406;SDS011;67692;51.074;-1.790;2023-10-09T00:18:42;12.55;;;7.70;;
78406;SDS011;67692;51.074;-1.790;2023-10-09T00:21:14;14.57;;;7.38;;
78406;SDS011;67692;51.074;-1.790;2023-10-09T00:23:42;14.18;;;7.75;;
78406;SDS011;67692;51.074;-1.790;2023-10-09T00:26:09;11.65;;;7.10;;
78406;SDS011;67692;51.074;-1.790;2023-10-09T00:28:37;14.15;;;7.45;;
78406;SDS011;67692;51.074;-1.790;2023-10-09T00:31:08;10.88;;;6.07;;
78406;SDS011;67692;51.074;-1.790;2023-10-09T00:33:40;13.43;;;6.22;;
78406;SDS011;67692;51.074;-1.790;2023-10-09T00:36:06;11.35;;;5.88;;
78406;SDS011;67692;51.074;-1.790;2023-10-09T00:38:36;14.15;;;6.35;;
78406;SDS011;67692;51.074;-1.790;2023-10-09T00:41:09;10.70;;;5.63;;
78406;SDS011;67692;51.074;-1.790;2023-10-09T00:43:37;9.65;;;5.40;;
78406;SDS011;67692;51.074;-1.790;2023-10-09T00:46:08;12.25;;;5.93;;
78406;SDS011;67692;51.074;-1.790;2023-10-09T00:48:49;10.05;;;6.05;;
78406;SDS011;67692;51.074;-1.790;2023-10-09T00:51:18;10.85;;;5.45;;
78406;SDS011;67692;51.074;-1.790;2023-10-09T00:53:49;11.65;;;6.32;;
78406;SDS011;67692;51.074;-1.790;2023-10-09T00:56:18;13.73;;;6.35;;
78406;SDS011;67692;51.074;-1.790;2023-10-09T01:01:25;9.02;;;5.22;;
78406;SDS011;67692;51.074;-1.790;2023-10-09T01:03:53;11.48;;;5.70;;
78406;SDS011;67692;51.074;-1.790;2023-10-09T01:06:21;11.30;;;5.07;;
78406;SDS011;67692;51.074;-1.790;2023-10-09T01:08:54;10.23;;;5.97;;
78406;SDS011;67692;51.074;-1.790;2023-10-09T01:11:34;11.55;;;5.65;;
78406;SDS011;67692;51.074;-1.790;2023-10-09T01:14:12;11.15;;;5.60;;
78406;SDS011;67692;51.074;-1.790;2023-10-09T01:16:39;11.35;;;5.40;;
78406;SDS011;67692;51.074;-1.790;2023-10-09T01:19:07;9.73;;;5.60;;
78406;SDS011;67692;51.074;-1.790;2023-10-09T01:21:45;11.32;;;5.68;;
78406;SDS011;67692;51.074;-1.790;2023-10-09T01:24:14;14.32;;;6.13;;
78406;SDS011;67692;51.074;-1.790;2023-10-09T01:26:42;13.45;;;5.63;;
78406;SDS011;67692;51.074;-1.790;2023-10-09T01:29:11;10.55;;;5.57;;
78406;SDS011;67692;51.074;-1.790;2023-10-09T01:31:41;9.65;;;5.45;;
78406;SDS011;67692;51.074;-1.790;2023-10-09T01:34:11;10.40;;;5.50;;
78406;SDS011;67692;51.074;-1.790;2023-10-09T01:36:40;9.07;;;4.60;;
78406;SDS011;67692;51.074;-1.790;2023-10-09T01:39:07;12.63;;;4.75;;
78406;SDS011;67692;51.074;-1.790;2023-10-09T01:41:36;9.52;;;5.75;;
78406;SDS011;67692;51.074;-1.790;2023-10-09T01:44:11;8.25;;;4.60;;
78406;SDS011;67692;51.074;-1.790;2023-10-09T01:46:41;8.35;;;4.80;;
78406;SDS011;67692;51.074;-1.790;2023-10-09T01:49:07;8.52;;;4.30;;
78406;SDS011;67692;51.074;-1.790;2023-10-09T01:51:42;10.18;;;5.13;;
78406;SDS011;67692;51.074;-1.790;2023-10-09T01:54:08;10.75;;;6.40;;
78406;SDS011;67692;51.074;-1.790;2023-10-09T01:56:42;12.45;;;7.35;;
78406;SDS011;67692;51.074;-1.790;2023-10-09T01:59:11;13.88;;;8.38;;
78406;SDS011;67692;51.074;-1.790;2023-10-09T02:01:39;14.90;;;8.27;;
78406;SDS011;67692;51.074;-1.790;2023-10-09T02:04:12;11.80;;;6.60;;
78406;SDS011;67692;51.074;-1.790;2023-10-09T02:06:45;18.98;;;8.27;;
78406;SDS011;67692;51.074;-1.790;2023-10-09T02:09:16;16.02;;;8.95;;
78406;SDS011;67692;51.074;-1.790;2023-10-09T02:11:49;17.73;;;9.52;;
78406;SDS011;67692;51.074;-1.790;2023-10-09T02:14:17;16.67;;;9.35;;
78406;SDS011;67692;51.074;-1.790;2023-10-09T02:16:45;13.80;;;7.97;;
78406;SDS011;67692;51.074;-1.790;2023-10-09T02:19:28;12.75;;;7.60;;
78406;SDS011;67692;51.074;-1.790;2023-10-09T02:21:59;14.70;;;7.57;;
78406;SDS011;67692;51.074;-1.790;2023-10-09T02:24:27;15.00;;;8.45;;
78406;SDS011;67692;51.074;-1.790;2023-10-09T02:27:17;16.52;;;8.52;;
78406;SDS011;67692;51.074;-1.790;2023-10-09T02:30:06;13.32;;;7.03;;
78406;SDS011;67692;51.074;-1.790;2023-10-09T02:32:41;13.02;;;6.93;;
78406;SDS011;67692;51.074;-1.790;2023-10-09T02:35:09;15.40;;;6.38;;
78406;SDS011;67692;51.074;-1.790;2023-10-09T02:37:45;12.30;;;6.63;;
78406;SDS011;67692;51.074;-1.790;2023-10-09T02:40:12;12.98;;;6.50;;
78406;SDS011;67692;51.074;-1.790;2023-10-09T02:42:49;15.38;;;6.85;;
78406;SDS011;67692;51.074;-1.790;2023-10-09T02:45:16;14.27;;;6.25;;
78406;SDS011;67692;51.074;-1.790;2023-10-09T02:47:43;13.05;;;5.97;;
78406;SDS011;67692;51.074;-1.790;2023-10-09T02:50:13;11.60;;;6.03;;
78406;SDS011;67692;51.074;-1.790;2023-10-09T02:52:46;10.68;;;5.60;;
78406;SDS011;67692;51.074;-1.790;2023-10-09T02:55:18;12.23;;;5.85;;
78406;SDS011;67692;51.074;-1.790;2023-10-09T02:57:52;12.85;;;6.53;;
78406;SDS011;67692;51.074;-1.790;2023-10-09T03:00:30;11.65;;;6.10;;
78406;SDS011;67692;51.074;-1.790;2023-10-09T03:02:57;11.43;;;5.70;;
78406;SDS011;67692;51.074;-1.790;2023-10-09T03:05:24;12.73;;;6.13;;
78406;SDS011;67692;51.074;-1.790;2023-10-09T03:07:52;11.13;;;5.93;;
78406;SDS011;67692;51.074;-1.790;2023-10-09T03:10:19;8.80;;;5.53;;
78406;SDS011;67692;51.074;-1.790;2023-10-09T03:12:48;10.45;;;5.80;;
78406;SDS011;67692;51.074;-1.790;2023-10-09T03:15:18;11.52;;;5.57;;
78406;SDS011;67692;51.074;-1.790;2023-10-09T03:17:45;13.63;;;6.47;;
78406;SDS011;67692;51.074;-1.790;2023-10-09T03:20:12;11.88;;;5.18;;
78406;SDS011;67692;51.074;-1.790;2023-10-09T03:22:40;11.73;;;5.80;;
78406;SDS011;67692;51.074;-1.790;2023-10-09T03:25:08;10.85;;;5.32;;
78406;SDS011;67692;51.074;-1.790;2023-10-09T03:27:37;8.88;;;4.78;;
78406;SDS011;67692;51.074;-1.790;2023-10-09T03:30:07;9.38;;;5.20;;
78406;SDS011;67692;51.074;-1.790;2023-10-09T03:32:42;7.47;;;4.72;;
78406;SDS011;67692;51.074;-1.790;2023-10-09T03:35:14;9.10;;;4.57;;
78406;SDS011;67692;51.074;-1.790;2023-10-09T03:37:48;8.57;;;4.65;;
78406;SDS011;67692;51.074;-1.790;2023-10-09T03:40:15;7.90;;;4.65;;
78406;SDS011;67692;51.074;-1.790;2023-10-09T03:42:42;12.10;;;4.25;;
78406;SDS011;67692;51.074;-1.790;2023-10-09T03:45:09;9.02;;;4.82;;
78406;SDS011;67692;51.074;-1.790;2023-10-09T03:47:37;6.78;;;4.10;;
78406;SDS011;67692;51.074;-1.790;2023-10-09T03:50:08;6.25;;;3.60;;
78406;SDS011;67692;51.074;-1.790;2023-10-09T03:52:48;6.25;;;3.50;;
78406;SDS011;67692;51.074;-1.790;2023-10-09T03:55:15;8.05;;;3.72;;
78406;SDS011;67692;51.074;-1.790;2023-10-09T03:57:42;6.18;;;3.33;;
78406;SDS011;67692;51.074;-1.790;2023-10-09T04:00:11;5.63;;;3.60;;
78406;SDS011;67692;51.074;-1.790;2023-10-09T04:02:52;7.13;;;3.20;;
78406;SDS011;67692;51.074;-1.790;2023-10-09T04:05:20;6.28;;;3.58;;
78406;SDS011;67692;51.074;-1.790;2023-10-09T04:07:47;8.15;;;3.85;;
78406;SDS011;67692;51.074;-1.790;2023-10-09T04:10:18;5.80;;;3.60;;
78406;SDS011;67692;51.074;-1.790;2023-10-09T04:13:08;5.43;;;3.70;;
78406;SDS011;67692;51.074;-1.790;2023-10-09T04:15:37;7.78;;;4.00;;
78406;SDS011;67692;51.074;-1.790;2023-10-09T04:18:07;6.10;;;3.47;;
78406;SDS011;67692;51.074;-1.790;2023-10-09T04:20:41;9.48;;;4.30;;
78406;SDS011;67692;51.074;-1.790;2023-10-09T04:23:41;8.02;;;3.53;;
78406;SDS011;67692;51.074;-1.790;2023-10-09T04:26:25;5.97;;;3.28;;
78406;SDS011;67692;51.074;-1.790;2023-10-09T04:28:51;8.45;;;3.55;;
78406;SDS011;67692;51.074;-1.790;2023-10-09T04:31:19;6.38;;;3.47;;
78406;SDS011;67692;51.074;-1.790;2023-10-09T04:33:47;5.90;;;3.20;;
78406;SDS011;67692;51.074;-1.790;2023-10-09T04:36:41;5.40;;;3.08;;
78406;SDS011;67692;51.074;-1.790;2023-10-09T04:39:14;7.80;;;3.03;;
78406;SDS011;67692;51.074;-1.790;2023-10-09T04:42:04;5.65;;;3.10;;
78406;SDS011;67692;51.074;-1.790;2023-10-09T04:45:01;7.93;;;3.13;;
78406;SDS011;67692;51.074;-1.790;2023-10-09T04:47:46;6.55;;;3.17;;
78406;SDS011;67692;51.074;-1.790;2023-10-09T04:50:23;7.30;;;3.30;;
78406;SDS011;67692;51.074;-1.790;2023-10-09T04:53:14;5.60;;;3.35;;
78406;SDS011;67692;51.074;-1.790;2023-10-09T04:55:49;5.75;;;3.15;;
78406;SDS011;67692;51.074;-1.790;2023-10-09T04:58:22;6.03;;;2.97;;
78406;SDS011;67692;51.074;-1.790;2023-10-09T05:00:51;6.40;;;3.15;;
78406;SDS011;67692;51.074;-1.790;2023-10-09T05:03:38;6.25;;;3.63;;
78406;SDS011;67692;51.074;-1.790;2023-10-09T05:06:09;5.30;;;3.05;;
78406;SDS011;67692;51.074;-1.790;2023-10-09T05:09:09;10.45;;;3.03;;
78406;SDS011;67692;51.074;-1.790;2023-10-09T05:11:38;10.38;;;3.33;;
78406;SDS011;67692;51.074;-1.790;2023-10-09T05:14:20;6.55;;;3.42;;
78406;SDS011;67692;51.074;-1.790;2023-10-09T05:17:07;7.47;;;2.85;;
78406;SDS011;67692;51.074;-1.790;2023-10-09T05:19:40;5.82;;;2.80;;
78406;SDS011;67692;51.074;-1.790;2023-10-09T05:22:19;5.80;;;3.30;;
78406;SDS011;67692;51.074;-1.790;2023-10-09T05:24:56;5.43;;;3.05;;
78406;SDS011;67692;51.074;-1.790;2023-10-09T05:27:23;5.25;;;2.85;;
78406;SDS011;67692;51.074;-1.790;2023-10-09T05:30:10;8.63;;;3.28;;
78406;SDS011;67692;51.074;-1.790;2023-10-09T05:32:52;6.40;;;3.08;;
78406;SDS011;67692;51.074;-1.790;2023-10-09T05:35:23;5.40;;;2.63;;
78406;SDS011;67692;51.074;-1.790;2023-10-09T05:38:05;6.00;;;3.10;;
78406;SDS011;67692;51.074;-1.790;2023-10-09T05:40:51;5.25;;;3.28;;
78406;SDS011;67692;51.074;-1.790;2023-10-09T05:43:29;7.20;;;3.58;;
78406;SDS011;67692;51.074;-1.790;2023-10-09T05:46:13;6.78;;;3.10;;
78406;SDS011;67692;51.074;-1.790;2023-10-09T05:48:40;6.20;;;2.95;;
78406;SDS011;67692;51.074;-1.790;2023-10-09T05:51:19;8.48;;;3.55;;
78406;SDS011;67692;51.074;-1.790;2023-10-09T05:54:00;8.05;;;3.38;;
78406;SDS011;67692;51.074;-1.790;2023-10-09T05:56:46;6.80;;;3.38;;
78406;SDS011;67692;51.074;-1.790;2023-10-09T05:59:29;6.18;;;2.85;;
78406;SDS011;67692;51.074;-1.790;2023-10-09T06:02:13;5.97;;;2.85;;
78406;SDS011;67692;51.074;-1.790;2023-10-09T06:04:57;6.18;;;3.55;;
78406;SDS011;67692;51.074;-1.790;2023-10-09T06:07:29;8.65;;;4.30;;
78406;SDS011;67692;51.074;-1.790;2023-10-09T06:10:26;9.82;;;3.72;;
78406;SDS011;67692;51.074;-1.790;2023-10-09T06:13:05;7.57;;;3.78;;
78406;SDS011;67692;51.074;-1.790;2023-10-09T06:15:37;8.57;;;3.88;;
78406;SDS011;67692;51.074;-1.790;2023-10-09T06:18:33;10.63;;;4.28;;
78406;SDS011;67692;51.074;-1.790;2023-10-09T06:21:00;7.93;;;4.10;;
78406;SDS011;67692;51.074;-1.790;2023-10-09T06:23:55;7.93;;;3.75;;
78406;SDS011;67692;51.074;-1.790;2023-10-09T06:26:41;6.35;;;3.22;;
78406;SDS011;67692;51.074;-1.790;2023-10-09T06:29:18;6.35;;;3.80;;
78406;SDS011;67692;51.074;-1.790;2023-10-09T06:32:12;10.95;;;5.15;;
78406;SDS011;67692;51.074;-1.790;2023-10-09T06:34:56;7.07;;;3.58;;
78406;SDS011;67692;51.074;-1.790;2023-10-09T06:37:40;9.20;;;4.07;;
78406;SDS011;67692;51.074;-1.790;2023-10-09T06:40:27;8.00;;;4.15;;
78406;SDS011;67692;51.074;-1.790;2023-10-09T06:43:17;10.32;;;4.35;;
78406;SDS011;67692;51.074;-1.790;2023-10-09T06:45:52;8.55;;;4.07;;
78406;SDS011;67692;51.074;-1.790;2023-10-09T06:48:22;9.55;;;3.95;;
78406;SDS011;67692;51.074;-1.790;2023-10-09T06:51:10;10.27;;;4.68;;
78406;SDS011;67692;51.074;-1.790;2023-10-09T06:53:40;8.75;;;4.35;;
78406;SDS011;67692;51.074;-1.790;2023-10-09T06:56:21;9.82;;;4.82;;
78406;SDS011;67692;51.074;-1.790;2023-10-09T06:58:51;10.77;;;4.80;;
78406;SDS011;67692;51.074;-1.790;2023-10-09T07:01:20;15.45;;;4.75;;
78406;SDS011;67692;51.074;-1.790;2023-10-09T07:03:55;13.25;;;5.13;;
78406;SDS011;67692;51.074;-1.790;2023-10-09T07:06:25;13.52;;;5.63;;
78406;SDS011;67692;51.074;-1.790;2023-10-09T07:09:06;11.18;;;4.72;;
78406;SDS011;67692;51.074;-1.790;2023-10-09T07:11:44;13.40;;;5.47;;
78406;SDS011;67692;51.074;-1.790;2023-10-09T07:14:29;11.48;;;4.13;;
78406;SDS011;67692;51.074;-1.790;2023-10-09T07:17:18;12.40;;;4.95;;
78406;SDS011;67692;51.074;-1.790;2023-10-09T07:20:10;12.90;;;5.10;;
78406;SDS011;67692;51.074;-1.790;2023-10-09T07:22:40;13.98;;;5.07;;
78406;SDS011;67692;51.074;-1.790;2023-10-09T07:25:21;12.70;;;4.72;;
78406;SDS011;67692;51.074;-1.790;2023-10-09T07:28:07;10.65;;;4.45;;
78406;SDS011;67692;51.074;-1.790;2023-10-09T07:30:54;11.23;;;5.10;;
78406;SDS011;67692;51.074;-1.790;2023-10-09T07:33:23;10.05;;;4.97;;
78406;SDS011;67692;51.074;-1.790;2023-10-09T07:36:00;9.80;;;4.55;;
78406;SDS011;67692;51.074;-1.790;2023-10-09T07:38:31;10.98;;;5.07;;
78406;SDS011;67692;51.074;-1.790;2023-10-09T07:41:00;9.95;;;4.68;;
78406;SDS011;67692;51.074;-1.790;2023-10-09T07:43:55;13.30;;;5.05;;
78406;SDS011;67692;51.074;-1.790;2023-10-09T07:46:22;11.02;;;4.53;;
78406;SDS011;67692;51.074;-1.790;2023-10-09T07:49:00;10.30;;;4.95;;
78406;SDS011;67692;51.074;-1.790;2023-10-09T07:51:35;12.70;;;4.97;;
78406;SDS011;67692;51.074;-1.790;2023-10-09T07:54:02;13.18;;;5.03;;
78406;SDS011;67692;51.074;-1.790;2023-10-09T07:56:33;11.35;;;4.53;;
78406;SDS011;67692;51.074;-1.790;2023-10-09T07:59:03;12.55;;;5.78;;
78406;SDS011;67692;51.074;-1.790;2023-10-09T08:01:35;11.60;;;5.13;;
78406;SDS011;67692;51.074;-1.790;2023-10-09T08:04:03;16.65;;;5.55;;
78406;SDS011;67692;51.074;-1.790;2023-10-09T08:06:37;10.85;;;5.07;;
78406;SDS011;67692;51.074;-1.790;2023-10-09T08:09:04;13.38;;;5.05;;
78406;SDS011;67692;51.074;-1.790;2023-10-09T08:12:11;10.88;;;4.50;;
78406;SDS011;67692;51.074;-1.790;2023-10-09T08:15:00;9.80;;;4.72;;
78406;SDS011;67692;51.074;-1.790;2023-10-09T08:17:45;12.52;;;5.40;;
78406;SDS011;67692;51.074;-1.790;2023-10-09T08:20:16;13.57;;;5.28;;
78406;SDS011;67692;51.074;-1.790;2023-10-09T08:22:51;13.88;;;5.45;;
78406;SDS011;67692;51.074;-1.790;2023-10-09T08:25:18;13.18;;;5.88;;
78406;SDS011;67692;51.074;-1.790;2023-10-09T08:27:57;19.27;;;7.05;;
78406;SDS011;67692;51.074;-1.790;2023-10-09T08:30:44;15.73;;;6.68;;
78406;SDS011;67692;51.074;-1.790;2023-10-09T08:33:16;15.85;;;6.00;;
78406;SDS011;67692;51.074;-1.790;2023-10-09T08:36:06;14.90;;;6.35;;
78406;SDS011;67692;51.074;-1.790;2023-10-09T08:38:36;16.50;;;6.40;;
78406;SDS011;67692;51.074;-1.790;2023-10-09T08:41:06;15.43;;;6.90;;
78406;SDS011;67692;51.074;-1.790;2023-10-09T08:43:42;17.70;;;6.68;;
78406;SDS011;67692;51.074;-1.790;2023-10-09T08:46:16;17.80;;;7.45;;
78406;SDS011;67692;51.074;-1.790;2023-10-09T08:48:47;17.65;;;6.72;;
78406;SDS011;67692;51.074;-1.790;2023-10-09T08:51:14;17.92;;;7.43;;
78406;SDS011;67692;51.074;-1.790;2023-10-09T08:53:45;17.45;;;7.22;;
78406;SDS011;67692;51.074;-1.790;2023-10-09T08:56:12;22.90;;;8.95;;
78406;SDS011;67692;51.074;-1.790;2023-10-09T08:58:44;21.73;;;8.73;;
78406;SDS011;67692;51.074;-1.790;2023-10-09T09:01:13;21.90;;;9.32;;
78406;SDS011;67692;51.074;-1.790;2023-10-09T09:03:44;23.73;;;9.82;;
78406;SDS011;67692;51.074;-1.790;2023-10-09T09:06:11;27.85;;;9.85;;
78406;SDS011;67692;51.074;-1.790;2023-10-09T09:08:39;25.95;;;9.43;;
78406;SDS011;67692;51.074;-1.790;2023-10-09T09:11:11;25.00;;;9.70;;
78406;SDS011;67692;51.074;-1.790;2023-10-09T09:13:41;24.77;;;10.05;;
78406;SDS011;67692;51.074;-1.790;2023-10-09T09:16:14;24.20;;;9.93;;
78406;SDS011;67692;51.074;-1.790;2023-10-09T09:18:52;26.23;;;10.15;;
78406;SDS011;67692;51.074;-1.790;2023-10-09T09:21:28;29.67;;;10.77;;
78406;SDS011;67692;51.074;-1.790;2023-10-09T09:24:00;26.45;;;10.75;;
78406;SDS011;67692;51.074;-1.790;2023-10-09T09:26:36;33.90;;;12.40;;
78406;SDS011;67692;51.074;-1.790;2023-10-09T09:29:04;30.15;;;12.05;;
78406;SDS011;67692;51.074;-1.790;2023-10-09T09:31:32;37.20;;;11.80;;
78406;SDS011;67692;51.074;-1.790;2023-10-09T09:34:03;27.50;;;10.90;;
78406;SDS011;67692;51.074;-1.790;2023-10-09T09:36:37;42.25;;;12.52;;
78406;SDS011;67692;51.074;-1.790;2023-10-09T09:39:18;31.40;;;12.27;;
78406;SDS011;67692;51.074;-1.790;2023-10-09T09:41:54;33.92;;;12.98;;
78406;SDS011;67692;51.074;-1.790;2023-10-09T09:44:22;37.47;;;13.50;;
78406;SDS011;67692;51.074;-1.790;2023-10-09T09:46:51;33.20;;;13.40;;
78406;SDS011;67692;51.074;-1.790;2023-10-09T09:49:20;37.17;;;13.00;;
78406;SDS011;67692;51.074;-1.790;2023-10-09T09:51:48;33.05;;;12.32;;
78406;SDS011;67692;51.074;-1.790;2023-10-09T09:54:15;34.53;;;12.43;;
78406;SDS011;67692;51.074;-1.790;2023-10-09T09:56:41;31.55;;;12.75;;
78406;SDS011;67692;51.074;-1.790;2023-10-09T09:59:15;27.05;;;12.40;;
78406;SDS011;67692;51.074;-1.790;2023-10-09T10:01:47;33.47;;;12.93;;
78406;SDS011;67692;51.074;-1.790;2023-10-09T10:04:22;27.13;;;12.60;;
78406;SDS011;67692;51.074;-1.790;2023-10-09T10:06:51;29.45;;;12.25;;
78406;SDS011;67692;51.074;-1.790;2023-10-09T10:12:10;31.23;;;12.27;;
78406;SDS011;67692;51.074;-1.790;2023-10-09T10:14:53;33.15;;;12.40;;
78406;SDS011;67692;51.074;-1.790;2023-10-09T10:17:22;33.53;;;12.20;;
78406;SDS011;67692;51.074;-1.790;2023-10-09T10:19:58;30.63;;;12.25;;
78406;SDS011;67692;51.074;-1.790;2023-10-09T10:23:17;33.63;;;13.10;;
78406;SDS011;67692;51.074;-1.790;2023-10-09T10:25:45;32.95;;;13.10;;
78406;SDS011;67692;51.074;-1.790;2023-10-09T10:28:15;37.60;;;12.82;;
78406;SDS011;67692;51.074;-1.790;2023-10-09T10:30:55;25.98;;;12.10;;
78406;SDS011;67692;51.074;-1.790;2023-10-09T10:33:25;31.67;;;12.35;;
78406;SDS011;67692;51.074;-1.790;2023-10-09T10:35:52;31.33;;;12.02;;
78406;SDS011;67692;51.074;-1.790;2023-10-09T10:38:24;27.27;;;11.23;;
78406;SDS011;67692;51.074;-1.790;2023-10-09T10:41:11;28.15;;;11.20;;
78406;SDS011;67692;51.074;-1.790;2023-10-09T10:43:41;26.90;;;10.23;;
78406;SDS011;67692;51.074;-1.790;2023-10-09T10:46:21;27.40;;;10.82;;
78406;SDS011;67692;51.074;-1.790;2023-10-09T10:49:03;26.45;;;11.45;;
78406;SDS011;67692;51.074;-1.790;2023-10-09T10:51:40;28.83;;;10.75;;
78406;SDS011;67692;51.074;-1.790;2023-10-09T10:54:19;27.17;;;10.80;;
78406;SDS011;67692;51.074;-1.790;2023-10-09T10:57:17;26.08;;;10.13;;
78406;SDS011;67692;51.074;-1.790;2023-10-09T11:00:09;24.40;;;10.00;;
78406;SDS011;67692;51.074;-1.790;2023-10-09T11:03:01;19.55;;;9.63;;
78406;SDS011;67692;51.074;-1.790;2023-10-09T11:05:40;20.65;;;9.25;;
78406;SDS011;67692;51.074;-1.790;2023-10-09T11:08:09;24.02;;;10.27;;
78406;SDS011;67692;51.074;-1.790;2023-10-09T11:10:36;21.67;;;9.52;;
78406;SDS011;67692;51.074;-1.790;2023-10-09T11:13:20;23.27;;;10.15;;
78406;SDS011;67692;51.074;-1.790;2023-10-09T11:15:58;19.95;;;8.48;;
78406;SDS011;67692;51.074;-1.790;2023-10-09T11:18:40;19.48;;;8.40;;
78406;SDS011;67692;51.074;-1.790;2023-10-09T11:21:13;15.85;;;7.78;;
78406;SDS011;67692;51.074;-1.790;2023-10-09T11:23:56;18.35;;;6.93;;
78406;SDS011;67692;51.074;-1.790;2023-10-09T11:26:23;16.33;;;7.57;;
78406;SDS011;67692;51.074;-1.790;2023-10-09T11:29:05;20.38;;;8.38;;
78406;SDS011;67692;51.074;-1.790;2023-10-09T11:31:57;17.27;;;7.53;;
78406;SDS011;67692;51.074;-1.790;2023-10-09T11:34:26;17.67;;;7.35;;
78406;SDS011;67692;51.074;-1.790;2023-10-09T11:36:57;15.40;;;6.75;;
78406;SDS011;67692;51.074;-1.790;2023-10-09T11:39:24;17.60;;;7.80;;
78406;SDS011;67692;51.074;-1.790;2023-10-09T11:42:00;17.65;;;7.63;;
78406;SDS011;67692;51.074;-1.790;2023-10-09T11:44:39;15.70;;;7.90;;
78406;SDS011;67692;51.074;-1.790;2023-10-09T11:47:09;18.45;;;7.65;;
78406;SDS011;67692;51.074;-1.790;2023-10-09T11:49:55;16.95;;;7.68;;
78406;SDS011;67692;51.074;-1.790;2023-10-09T11:52:54;13.10;;;6.93;;
78406;SDS011;67692;51.074;-1.790;2023-10-09T11:55:36;16.25;;;6.53;;
78406;SDS011;67692;51.074;-1.790;2023-10-09T11:58:04;14.90;;;6.45;;
78406;SDS011;67692;51.074;-1.790;2023-10-09T12:00:32;15.98;;;6.65;;
78406;SDS011;67692;51.074;-1.790;2023-10-09T12:03:09;16.23;;;6.82;;
78406;SDS011;67692;51.074;-1.790;2023-10-09T12:05:41;15.02;;;6.78;;
78406;SDS011;67692;51.074;-1.790;2023-10-09T12:08:09;13.35;;;6.20;;
78406;SDS011;67692;51.074;-1.790;2023-10-09T12:10:36;16.13;;;5.60;;
78406;SDS011;67692;51.074;-1.790;2023-10-09T12:13:03;14.63;;;5.70;;
78406;SDS011;67692;51.074;-1.790;2023-10-09T12:15:30;12.68;;;5.70;;
78406;SDS011;67692;51.074;-1.790;2023-10-09T12:18:03;11.15;;;5.18;;
78406;SDS011;67692;51.074;-1.790;2023-10-09T12:20:39;9.15;;;4.15;;
78406;SDS011;67692;51.074;-1.790;2023-10-09T12:23:15;14.35;;;5.88;;
78406;SDS011;67692;51.074;-1.790;2023-10-09T12:25:41;12.23;;;5.65;;
78406;SDS011;67692;51.074;-1.790;2023-10-09T12:28:10;12.23;;;4.93;;
78406;SDS011;67692;51.074;-1.790;2023-10-09T12:30:38;10.75;;;4.03;;
78406;SDS011;67692;51.074;-1.790;2023-10-09T12:33:05;11.93;;;5.57;;
78406;SDS011;67692;51.074;-1.790;2023-10-09T12:35:35;14.10;;;6.20;;
78406;SDS011;67692;51.074;-1.790;2023-10-09T12:38:04;12.85;;;5.57;;
78406;SDS011;67692;51.074;-1.790;2023-10-09T12:40:33;12.52;;;5.53;;
78406;SDS011;67692;51.074;-1.790;2023-10-09T12:43:01;12.75;;;5.18;;
78406;SDS011;67692;51.074;-1.790;2023-10-09T12:45:27;12.75;;;5.43;;
78406;SDS011;67692;51.074;-1.790;2023-10-09T12:47:57;12.10;;;4.72;;
78406;SDS011;67692;51.074;-1.790;2023-10-09T12:50:27;12.05;;;5.72;;
78406;SDS011;67692;51.074;-1.790;2023-10-09T12:52:55;11.43;;;5.47;;
78406;SDS011;67692;51.074;-1.790;2023-10-09T12:55:28;9.95;;;4.35;;
78406;SDS011;67692;51.074;-1.790;2023-10-09T12:57:59;10.25;;;4.40;;
78406;SDS011;67692;51.074;-1.790;2023-10-09T13:00:31;13.82;;;4.97;;
78406;SDS011;67692;51.074;-1.790;2023-10-09T13:03:02;9.82;;;4.40;;
78406;SDS011;67692;51.074;-1.790;2023-10-09T13:05:38;11.27;;;4.30;;
78406;SDS011;67692;51.074;-1.790;2023-10-09T13:08:16;11.70;;;4.05;;
78406;SDS011;67692;51.074;-1.790;2023-10-09T13:10:46;15.40;;;4.45;;
78406;SDS011;67692;51.074;-1.790;2023-10-09T13:13:14;9.68;;;4.07;;
78406;SDS011;67692;51.074;-1.790;2023-10-09T13:15:41;10.23;;;3.72;;
78406;SDS011;67692;51.074;-1.790;2023-10-09T13:18:08;11.23;;;3.38;;
78406;SDS011;67692;51.074;-1.790;2023-10-09T13:20:34;8.68;;;3.60;;
78406;SDS011;67692;51.074;-1.790;2023-10-09T13:23:01;7.55;;;3.47;;
78406;SDS011;67692;51.074;-1.790;2023-10-09T13:25:27;7.93;;;3.22;;
78406;SDS011;67692;51.074;-1.790;2023-10-09T13:28:06;9.57;;;3.10;;
78406;SDS011;67692;51.074;-1.790;2023-10-09T13:30:32;13.10;;;3.63;;
78406;SDS011;67692;51.074;-1.790;2023-10-09T13:33:05;9.35;;;3.65;;
78406;SDS011;67692;51.074;-1.790;2023-10-09T13:35:31;10.90;;;3.63;;
78406;SDS011;67692;51.074;-1.790;2023-10-09T13:38:03;7.35;;;3.13;;
78406;SDS011;67692;51.074;-1.790;2023-10-09T13:40:33;10.40;;;4.13;;
78406;SDS011;67692;51.074;-1.790;2023-10-09T13:43:02;8.32;;;3.10;;
78406;SDS011;67692;51.074;-1.790;2023-10-09T13:45:37;12.65;;;3.65;;
78406;SDS011;67692;51.074;-1.790;2023-10-09T13:48:05;9.93;;;3.53;;
78406;SDS011;67692;51.074;-1.790;2023-10-09T13:50:36;10.35;;;3.58;;
78406;SDS011;67692;51.074;-1.790;2023-10-09T13:53:07;10.63;;;3.58;;
78406;SDS011;67692;51.074;-1.790;2023-10-09T13:55:36;13.95;;;3.58;;
78406;SDS011;67692;51.074;-1.790;2023-10-09T13:58:08;9.38;;;3.45;;
78406;SDS011;67692;51.074;-1.790;2023-10-09T14:00:40;10.45;;;3.50;;
78406;SDS011;67692;51.074;-1.790;2023-10-09T14:03:08;10.23;;;3.33;;
78406;SDS011;67692;51.074;-1.790;2023-10-09T14:05:38;19.45;;;3.67;;
78406;SDS011;67692;51.074;-1.790;2023-10-09T14:08:17;8.20;;;3.58;;
78406;SDS011;67692;51.074;-1.790;2023-10-09T14:10:47;13.45;;;3.47;;
78406;SDS011;67692;51.074;-1.790;2023-10-09T14:13:13;11.68;;;3.50;;
78406;SDS011;67692;51.074;-1.790;2023-10-09T14:15:43;9.55;;;3.05;;
78406;SDS011;67692;51.074;-1.790;2023-10-09T14:18:11;10.93;;;3.35;;
78406;SDS011;67692;51.074;-1.790;2023-10-09T14:20:38;7.70;;;3.00;;
78406;SDS011;67692;51.074;-1.790;2023-10-09T14:23:06;8.00;;;3.30;;
78406;SDS011;67692;51.074;-1.790;2023-10-09T14:25:36;8.70;;;3.10;;
78406;SDS011;67692;51.074;-1.790;2023-10-09T14:28:04;8.75;;;3.80;;
78406;SDS011;67692;51.074;-1.790;2023-10-09T14:30:33;10.07;;;3.30;;
78406;SDS011;67692;51.074;-1.790;2023-10-09T14:33:08;8.07;;;3.58;;
78406;SDS011;67692;51.074;-1.790;2023-10-09T14:35:38;10.02;;;3.63;;
78406;SDS011;67692;51.074;-1.790;2023-10-09T14:38:05;8.65;;;3.55;;
78406;SDS011;67692;51.074;-1.790;2023-10-09T14:40:37;9.93;;;3.30;;
78406;SDS011;67692;51.074;-1.790;2023-10-09T14:43:06;10.70;;;3.83;;
78406;SDS011;67692;51.074;-1.790;2023-10-09T14:45:41;9.38;;;3.40;;
78406;SDS011;67692;51.074;-1.790;2023-10-09T14:48:09;18.83;;;3.90;;
78406;SDS011;67692;51.074;-1.790;2023-10-09T14:50:36;13.52;;;4.03;;
78406;SDS011;67692;51.074;-1.790;2023-10-09T14:53:03;10.35;;;3.80;;
78406;SDS011;67692;51.074;-1.790;2023-10-09T14:55:30;8.93;;;3.40;;
78406;SDS011;67692;51.074;-1.790;2023-10-09T14:57:57;9.55;;;3.22;;
78406;SDS011;67692;51.074;-1.790;2023-10-09T15:00:23;8.95;;;3.65;;
78406;SDS011;67692;51.074;-1.790;2023-10-09T15:02:51;9.52;;;3.63;;
78406;SDS011;67692;51.074;-1.790;2023-10-09T15:05:19;10.55;;;3.63;;
78406;SDS011;67692;51.074;-1.790;2023-10-09T15:07:47;10.00;;;3.47;;